Buoy 13569

sailwx.info

Track history (hours):
 
Tides and Currents Weather Stations Pressure Air Temp Water Temp Dewpoint Dewpoint Depression Visibility Wind Speed Wind Dir Waves Ship Positions

Drifting buoy 13569

Last reported at 2014-Oct-31 19:00 UTC. Time now 2014-Nov-01 13:20 UTC.
Position N 33°39' W 029°44'.

Barometer 1027.9 mb
Water temperature 22.2 ° C

Date/timePositionNaut miles runAvg speedWind from/ knotsBaromVisibWave heightAir tempDewpointWater temp
2014-Oct-31 19:00N 33°39' W 029°44'1 0.9 1027.9 22.2
2014-Oct-31 18:00N 33°39' W 029°43'0 0.0 1027.5 22.2
2014-Oct-31 17:00N 33°39' W 029°43'0 0.0 1027.4 22.2
2014-Oct-31 16:00N 33°39' W 029°43'0 0.0 1027.0 22.2
2014-Oct-31 15:00N 33°39' W 029°43'2 0.5 1027.3 22.2
2014-Oct-31 11:00N 33°41' W 029°43'0 0.0 1027.3 22.2
2014-Oct-31 10:00N 33°41' W 029°43'1 0.3 1026.5 22.2
2014-Oct-31 07:00N 33°41' W 029°43'0 0.0 1023.7 22.2
2014-Oct-31 05:00N 33°41' W 029°43'2 1.0 1022.5 22.2
2014-Oct-31 03:00N 33°41' W 029°41'1 1.5 1022.2 22.2
2014-Oct-31 02:00N 33°40' W 029°42'2 0.5 1022.0 22.2
2014-Oct-30 22:00N 33°41' W 029°40'0 0.0 1020.4 22.2
2014-Oct-30 19:00N 33°41' W 029°40'4 1.9 1017.2 22.3
2014-Oct-30 17:00N 33°44' W 029°37'0 0.0 1015.7 22.3
2014-Oct-30 15:00N 33°44' W 029°37'0 0.0 1014.7 22.3
2014-Oct-30 14:00N 33°44' W 029°37'0 0.0 1014.7 22.3
2014-Oct-30 12:00N 33°44' W 029°37'2 0.8 1014.2 22.3
2014-Oct-30 10:00N 33°45' W 029°39'0 0.2 1012.5 22.4
2014-Oct-30 07:00N 33°45' W 029°38'1 0.3 1010.0 22.2
2014-Oct-30 05:00N 33°45' W 029°38'1 0.1 1009.0 22.2
2014-Oct-29 23:00N 33°44' W 029°38'0 0.0 1012.0 22.3
2014-Oct-29 22:00N 33°44' W 029°38'1 0.3 1012.4 22.4
2014-Oct-29 19:00N 33°44' W 029°37'0 0.0 1012.0 22.5
2014-Oct-29 17:00N 33°44' W 029°37'0 0.4 1012.7 22.5
2014-Oct-29 16:00N 33°44' W 029°37'0 0.0 1013.0 22.5
2014-Oct-29 15:00N 33°44' W 029°37'2 0.5 1013.5 22.4
2014-Oct-29 11:00N 33°46' W 029°37'1 0.4 1016.0 22.3
2014-Oct-29 08:00N 33°45' W 029°37'0 0.0 1014.7 22.3
2014-Oct-29 07:00N 33°45' W 029°37'0 0.0 1014.7 22.3
2014-Oct-29 06:00N 33°45' W 029°37'0 0.2 1014.7 22.3
2014-Oct-29 05:00N 33°46' W 029°37'0 0.0 1015.0 22.3
2014-Oct-29 04:00N 33°46' W 029°37'0 0.1 1015.7 22.3
2014-Oct-29 00:00N 33°45' W 029°37'0 0.2 1017.9 22.3
2014-Oct-28 23:00N 33°45' W 029°37'0 0.0 1018.0 22.3
2014-Oct-28 22:00N 33°45' W 029°37'2 1.6 1018.0 22.3
2014-Oct-28 21:00N 33°45' W 029°35'1 1.3 1018.0 22.4
2014-Oct-28 20:00N 33°44' W 029°36'1 0.8 1018.0 22.4
2014-Oct-28 19:00N 33°45' W 029°35'0 0.0 1017.5 22.4
2014-Oct-28 18:00N 33°45' W 029°35'2 2.3 1017.4 22.4
2014-Oct-28 17:00N 33°46' W 029°33'0 0.0 1017.4 22.5
2014-Oct-28 15:00N 33°46' W 029°33'2 0.5 1018.0 22.4
2014-Oct-28 12:00N 33°47' W 029°35'0 0.2 1019.5 22.3
2014-Oct-28 11:00N 33°47' W 029°35'1 0.5 1019.5 22.2
2014-Oct-28 10:00N 33°46' W 029°34'0 0.0 1019.0 22.2
2014-Oct-28 08:00N 33°46' W 029°34'0 0.5 1018.2 22.2
2014-Oct-28 07:00N 33°46' W 029°34'1 0.6 1017.7 22.2
2014-Oct-28 06:00N 33°47' W 029°34'0 0.0 1017.5 22.2
2014-Oct-28 04:00N 33°47' W 029°34'2 0.3 1017.2 22.2
2014-Oct-27 22:00N 33°48' W 029°31'1 0.4 1017.7 22.2
2014-Oct-27 20:00N 33°48' W 029°32'0 0.0 1017.4 22.3
2014-Oct-27 18:00N 33°48' W 029°32'2 2.3 1016.7 22.3
2014-Oct-27 17:00N 33°50' W 029°31'0 0.0 1016.9 22.3
2014-Oct-27 15:00N 33°50' W 029°31'0 0.0 1017.0 22.3
2014-Oct-27 14:00N 33°50' W 029°31'2 2.3 1017.5 22.3
2014-Oct-27 13:00N 33°51' W 029°33'1 0.4 1018.2 22.2
2014-Oct-27 11:00N 33°51' W 029°33'1 0.9 1018.4 22.2
2014-Oct-27 10:00N 33°51' W 029°33'1 0.3 1018.5 22.2
2014-Oct-27 07:00N 33°51' W 029°34'2 1.7 1018.0 22.2
2014-Oct-27 06:00N 33°51' W 029°32'0 0.0 1018.0 22.2
2014-Oct-27 05:00N 33°51' W 029°32'0 0.2 1017.7 22.3
2014-Oct-27 04:00N 33°51' W 029°32'3 0.6 1018.0 22.3
2014-Oct-26 23:00N 33°53' W 029°35'0 0.0 1019.2 22.3
2014-Oct-26 22:00N 33°53' W 029°35'0 0.1 1019.0 22.3
2014-Oct-26 18:00N 33°52' W 029°35'0 0.0 1017.4 22.5
2014-Oct-26 15:00N 33°52' W 029°35'0 0.5 1017.5 22.6
2014-Oct-26 14:00N 33°53' W 029°35'2 0.3 1018.0 22.5
2014-Oct-26 08:00N 33°51' W 029°36'1 0.2 1017.4 22.4
2014-Oct-26 04:00N 33°50' W 029°35'2 0.8 1016.9 22.3
2014-Oct-26 02:00N 33°52' W 029°35'1 0.4 1017.4 22.4
2014-Oct-25 23:00N 33°52' W 029°37'1 0.3 1017.7 22.4
2014-Oct-25 19:00N 33°51' W 029°37'1 0.7 1016.2 22.4
2014-Oct-25 18:00N 33°50' W 029°37'1 0.8 1016.0 22.5
2014-Oct-25 17:00N 33°50' W 029°37'2 2.1 1016.2 22.5
2014-Oct-25 16:00N 33°50' W 029°35'1 0.2 1016.2 22.5
2014-Oct-25 12:00N 33°50' W 029°34'0 0.0 1017.5 22.3
2014-Oct-25 11:00N 33°50' W 029°34'0 0.0 1017.4 22.3
2014-Oct-25 08:00N 33°50' W 029°34'0 0.0 1015.7 22.3
2014-Oct-25 07:00N 33°50' W 029°34'0 0.0 1015.5 22.3
2014-Oct-25 06:00N 33°50' W 029°34'0 0.0 1015.5 22.3
2014-Oct-25 05:00N 33°50' W 029°34'0 0.0 1015.5 22.3
2014-Oct-25 04:00N 33°50' W 029°34'1 0.3 1015.7 22.3
2014-Oct-24 23:00N 33°52' W 029°34'1 0.7 1016.7 22.3
2014-Oct-24 22:00N 33°51' W 029°34'1 0.3 1016.5 22.3
2014-Oct-24 19:00N 33°50' W 029°33'1 0.3 1015.0 22.3
2014-Oct-24 14:00N 33°50' W 029°31'0 0.0 1014.7 22.3
2014-Oct-24 12:00N 33°50' W 029°31'0 0.2 1015.2 22.2
2014-Oct-24 11:00N 33°50' W 029°31'0 0.1 1015.0 22.2
2014-Oct-24 07:00N 33°50' W 029°31'1 0.5 1012.9 22.2
2014-Oct-24 05:00N 33°50' W 029°30'0 0.0 1012.0 22.3
2014-Oct-24 04:00N 33°50' W 029°30'1 0.5 1012.0 22.3
2014-Oct-24 02:00N 33°51' W 029°30'0 0.0 1012.2 22.3
2014-Oct-24 00:00N 33°51' W 029°30'0 0.0 1012.5 22.4
2014-Oct-23 23:00N 33°51' W 029°30'1 0.3 1012.5 22.3
2014-Oct-23 20:00N 33°51' W 029°30'0 0.0 1010.9 22.2
2014-Oct-23 19:00N 33°51' W 029°30'1 1.1 1010.0 22.2
2014-Oct-23 18:00N 33°50' W 029°29'1 0.6 1009.5 22.2
2014-Oct-23 16:00N 33°49' W 029°28'0 0.0 1009.0 22.2
2014-Oct-23 13:00N 33°49' W 029°28'1 0.9 1009.0 22.2
2014-Oct-23 12:00N 33°49' W 029°27'0 0.0 1009.0 22.2
2014-Oct-23 11:00N 33°49' W 029°27'1 0.6 1009.2 22.2
2014-Oct-23 10:00N 33°49' W 029°27'0 0.1 1009.0 22.2
2014-Oct-23 07:00N 33°49' W 029°27'0 0.3 1008.5 22.2
2014-Oct-23 06:00N 33°49' W 029°28'0 0.2 1008.2 22.2
2014-Oct-23 03:00N 33°49' W 029°28'3 0.7 1009.0 22.2
2014-Oct-22 23:00N 33°46' W 029°26'1 0.1 1009.2 22.2
2014-Oct-22 17:00N 33°47' W 029°26'0 0.2 1007.2 22.3
2014-Oct-22 16:00N 33°47' W 029°26'1 0.2 1006.7 22.3
2014-Oct-22 11:00N 33°48' W 029°25'0 0.0 1007.0 22.3
2014-Oct-22 07:00N 33°48' W 029°25'3 0.7 1004.4 22.2
2014-Oct-22 03:00N 33°46' W 029°23'3 0.8 1003.9 22.2
2014-Oct-21 23:00N 33°48' W 029°20'0 0.0 1004.2 22.2
2014-Oct-21 22:00N 33°48' W 029°20'0 0.0 1004.0 22.2
2014-Oct-21 21:00N 33°48' W 029°20'0 0.0 1003.0 22.2
2014-Oct-21 19:00N 33°48' W 029°20'   1002.0 22.3
Track history (hours):
 
Tides and Currents Weather Stations Pressure Air Temp Water Temp Dewpoint Dewpoint Depression Visibility Wind Speed Wind Dir Waves Ship Positions

Drifting buoy 13569

Last reported at 2014-Oct-31 19:00 UTC. Time now 2014-Nov-01 13:20 UTC.
Position N 33°39' W 029°44'.

Barometer 1027.9 mb
Water temperature 22.2 ° C

Date/timePositionNaut miles runAvg speedWind from/ knotsBaromVisibWave heightAir tempDewpointWater temp
2014-Oct-31 19:00N 33°39' W 029°44'1 0.9 1027.9 22.2
2014-Oct-31 18:00N 33°39' W 029°43'0 0.0 1027.5 22.2
2014-Oct-31 17:00N 33°39' W 029°43'0 0.0 1027.4 22.2
2014-Oct-31 16:00N 33°39' W 029°43'0 0.0 1027.0 22.2
2014-Oct-31 15:00N 33°39' W 029°43'2 0.5 1027.3 22.2
2014-Oct-31 11:00N 33°41' W 029°43'0 0.0 1027.3 22.2
2014-Oct-31 10:00N 33°41' W 029°43'1 0.3 1026.5 22.2
2014-Oct-31 07:00N 33°41' W 029°43'0 0.0 1023.7 22.2
2014-Oct-31 05:00N 33°41' W 029°43'2 1.0 1022.5 22.2
2014-Oct-31 03:00N 33°41' W 029°41'1 1.5 1022.2 22.2
2014-Oct-31 02:00N 33°40' W 029°42'2 0.5 1022.0 22.2
2014-Oct-30 22:00N 33°41' W 029°40'0 0.0 1020.4 22.2
2014-Oct-30 19:00N 33°41' W 029°40'4 1.9 1017.2 22.3
2014-Oct-30 17:00N 33°44' W 029°37'0 0.0 1015.7 22.3
2014-Oct-30 15:00N 33°44' W 029°37'0 0.0 1014.7 22.3
2014-Oct-30 14:00N 33°44' W 029°37'0 0.0 1014.7 22.3
2014-Oct-30 12:00N 33°44' W 029°37'2 0.8 1014.2 22.3
2014-Oct-30 10:00N 33°45' W 029°39'0 0.2 1012.5 22.4
2014-Oct-30 07:00N 33°45' W 029°38'1 0.3 1010.0 22.2
2014-Oct-30 05:00N 33°45' W 029°38'1 0.1 1009.0 22.2
2014-Oct-29 23:00N 33°44' W 029°38'0 0.0 1012.0 22.3
2014-Oct-29 22:00N 33°44' W 029°38'1 0.3 1012.4 22.4
2014-Oct-29 19:00N 33°44' W 029°37'0 0.0 1012.0 22.5
2014-Oct-29 17:00N 33°44' W 029°37'0 0.4 1012.7 22.5
2014-Oct-29 16:00N 33°44' W 029°37'0 0.0 1013.0 22.5
2014-Oct-29 15:00N 33°44' W 029°37'2 0.5 1013.5 22.4
2014-Oct-29 11:00N 33°46' W 029°37'1 0.4 1016.0 22.3
2014-Oct-29 08:00N 33°45' W 029°37'0 0.0 1014.7 22.3
2014-Oct-29 07:00N 33°45' W 029°37'0 0.0 1014.7 22.3
2014-Oct-29 06:00N 33°45' W 029°37'0 0.2 1014.7 22.3
2014-Oct-29 05:00N 33°46' W 029°37'0 0.0 1015.0 22.3
2014-Oct-29 04:00N 33°46' W 029°37'0 0.1 1015.7 22.3
2014-Oct-29 00:00N 33°45' W 029°37'0 0.2 1017.9 22.3
2014-Oct-28 23:00N 33°45' W 029°37'0 0.0 1018.0 22.3
2014-Oct-28 22:00N 33°45' W 029°37'2 1.6 1018.0 22.3
2014-Oct-28 21:00N 33°45' W 029°35'1 1.3 1018.0 22.4
2014-Oct-28 20:00N 33°44' W 029°36'1 0.8 1018.0 22.4
2014-Oct-28 19:00N 33°45' W 029°35'0 0.0 1017.5 22.4
2014-Oct-28 18:00N 33°45' W 029°35'2 2.3 1017.4 22.4
2014-Oct-28 17:00N 33°46' W 029°33'0 0.0 1017.4 22.5
2014-Oct-28 15:00N 33°46' W 029°33'2 0.5 1018.0 22.4
2014-Oct-28 12:00N 33°47' W 029°35'0 0.2 1019.5 22.3
2014-Oct-28 11:00N 33°47' W 029°35'1 0.5 1019.5 22.2
2014-Oct-28 10:00N 33°46' W 029°34'0 0.0 1019.0 22.2
2014-Oct-28 08:00N 33°46' W 029°34'0 0.5 1018.2 22.2
2014-Oct-28 07:00N 33°46' W 029°34'1 0.6 1017.7 22.2
2014-Oct-28 06:00N 33°47' W 029°34'0 0.0 1017.5 22.2
2014-Oct-28 04:00N 33°47' W 029°34'2 0.3 1017.2 22.2
2014-Oct-27 22:00N 33°48' W 029°31'1 0.4 1017.7 22.2
2014-Oct-27 20:00N 33°48' W 029°32'0 0.0 1017.4 22.3
2014-Oct-27 18:00N 33°48' W 029°32'2 2.3 1016.7 22.3
2014-Oct-27 17:00N 33°50' W 029°31'0 0.0 1016.9 22.3
2014-Oct-27 15:00N 33°50' W 029°31'0 0.0 1017.0 22.3
2014-Oct-27 14:00N 33°50' W 029°31'2 2.3 1017.5 22.3
2014-Oct-27 13:00N 33°51' W 029°33'1 0.4 1018.2 22.2
2014-Oct-27 11:00N 33°51' W 029°33'1 0.9 1018.4 22.2
2014-Oct-27 10:00N 33°51' W 029°33'1 0.3 1018.5 22.2
2014-Oct-27 07:00N 33°51' W 029°34'2 1.7 1018.0 22.2
2014-Oct-27 06:00N 33°51' W 029°32'0 0.0 1018.0 22.2
2014-Oct-27 05:00N 33°51' W 029°32'0 0.2 1017.7 22.3
2014-Oct-27 04:00N 33°51' W 029°32'3 0.6 1018.0 22.3
2014-Oct-26 23:00N 33°53' W 029°35'0 0.0 1019.2 22.3
2014-Oct-26 22:00N 33°53' W 029°35'0 0.1 1019.0 22.3
2014-Oct-26 18:00N 33°52' W 029°35'0 0.0 1017.4 22.5
2014-Oct-26 15:00N 33°52' W 029°35'0 0.5 1017.5 22.6
2014-Oct-26 14:00N 33°53' W 029°35'2 0.3 1018.0 22.5
2014-Oct-26 08:00N 33°51' W 029°36'1 0.2 1017.4 22.4
2014-Oct-26 04:00N 33°50' W 029°35'2 0.8 1016.9 22.3
2014-Oct-26 02:00N 33°52' W 029°35'1 0.4 1017.4 22.4
2014-Oct-25 23:00N 33°52' W 029°37'1 0.3 1017.7 22.4
2014-Oct-25 19:00N 33°51' W 029°37'1 0.7 1016.2 22.4
2014-Oct-25 18:00N 33°50' W 029°37'1 0.8 1016.0 22.5
2014-Oct-25 17:00N 33°50' W 029°37'2 2.1 1016.2 22.5
2014-Oct-25 16:00N 33°50' W 029°35'1 0.2 1016.2 22.5
2014-Oct-25 12:00N 33°50' W 029°34'0 0.0 1017.5 22.3
2014-Oct-25 11:00N 33°50' W 029°34'0 0.0 1017.4 22.3
2014-Oct-25 08:00N 33°50' W 029°34'0 0.0 1015.7 22.3
2014-Oct-25 07:00N 33°50' W 029°34'0 0.0 1015.5 22.3
2014-Oct-25 06:00N 33°50' W 029°34'0 0.0 1015.5 22.3
2014-Oct-25 05:00N 33°50' W 029°34'0 0.0 1015.5 22.3
2014-Oct-25 04:00N 33°50' W 029°34'1 0.3 1015.7 22.3
2014-Oct-24 23:00N 33°52' W 029°34'1 0.7 1016.7 22.3
2014-Oct-24 22:00N 33°51' W 029°34'1 0.3 1016.5 22.3
2014-Oct-24 19:00N 33°50' W 029°33'1 0.3 1015.0 22.3
2014-Oct-24 14:00N 33°50' W 029°31'0 0.0 1014.7 22.3
2014-Oct-24 12:00N 33°50' W 029°31'0 0.2 1015.2 22.2
2014-Oct-24 11:00N 33°50' W 029°31'0 0.1 1015.0 22.2
2014-Oct-24 07:00N 33°50' W 029°31'1 0.5 1012.9 22.2
2014-Oct-24 05:00N 33°50' W 029°30'0 0.0 1012.0 22.3
2014-Oct-24 04:00N 33°50' W 029°30'1 0.5 1012.0 22.3
2014-Oct-24 02:00N 33°51' W 029°30'0 0.0 1012.2 22.3
2014-Oct-24 00:00N 33°51' W 029°30'0 0.0 1012.5 22.4
2014-Oct-23 23:00N 33°51' W 029°30'1 0.3 1012.5 22.3
2014-Oct-23 20:00N 33°51' W 029°30'0 0.0 1010.9 22.2
2014-Oct-23 19:00N 33°51' W 029°30'1 1.1 1010.0 22.2
2014-Oct-23 18:00N 33°50' W 029°29'1 0.6 1009.5 22.2
2014-Oct-23 16:00N 33°49' W 029°28'0 0.0 1009.0 22.2
2014-Oct-23 13:00N 33°49' W 029°28'1 0.9 1009.0 22.2
2014-Oct-23 12:00N 33°49' W 029°27'0 0.0 1009.0 22.2
2014-Oct-23 11:00N 33°49' W 029°27'1 0.6 1009.2 22.2
2014-Oct-23 10:00N 33°49' W 029°27'0 0.1 1009.0 22.2
2014-Oct-23 07:00N 33°49' W 029°27'0 0.3 1008.5 22.2
2014-Oct-23 06:00N 33°49' W 029°28'0 0.2 1008.2 22.2
2014-Oct-23 03:00N 33°49' W 029°28'3 0.7 1009.0 22.2
2014-Oct-22 23:00N 33°46' W 029°26'1 0.1 1009.2 22.2
2014-Oct-22 17:00N 33°47' W 029°26'0 0.2 1007.2 22.3
2014-Oct-22 16:00N 33°47' W 029°26'1 0.2 1006.7 22.3
2014-Oct-22 11:00N 33°48' W 029°25'0 0.0 1007.0 22.3
2014-Oct-22 07:00N 33°48' W 029°25'3 0.7 1004.4 22.2
2014-Oct-22 03:00N 33°46' W 029°23'3 0.8 1003.9 22.2
2014-Oct-21 23:00N 33°48' W 029°20'0 0.0 1004.2 22.2
2014-Oct-21 22:00N 33°48' W 029°20'0 0.0 1004.0 22.2
2014-Oct-21 21:00N 33°48' W 029°20'0 0.0 1003.0 22.2
2014-Oct-21 19:00N 33°48' W 029°20'   1002.0 22.3

Dump ship's entire track history